createdAt,value
2022-08-22T00:02:17.549Z,20.43
2022-08-22T00:02:57.556Z,20.62
2022-08-22T00:03:01.015Z,21.65
2022-08-22T00:05:26.024Z,20.41
2022-08-22T00:08:32.970Z,20.40
2022-08-22T00:11:59.269Z,20.34
2022-08-22T00:15:18.375Z,20.37
2022-08-22T00:18:52.649Z,20.36
2022-08-22T00:22:09.179Z,20.22
2022-08-22T00:25:25.494Z,20.32
2022-08-22T00:28:36.397Z,20.32
2022-08-22T00:31:51.971Z,20.21
2022-08-22T00:35:02.776Z,20.22
2022-08-22T00:38:13.003Z,20.20
2022-08-22T00:41:24.714Z,20.20
2022-08-22T00:44:58.073Z,20.20
2022-08-22T00:48:22.386Z,20.32
2022-08-22T00:51:51.112Z,20.30
2022-08-22T00:55:02.489Z,20.28
2022-08-22T00:58:37.440Z,20.27
2022-08-22T01:02:43.140Z,19.98
2022-08-22T01:06:06.820Z,20.19
2022-08-22T01:09:50.794Z,20.17
2022-08-22T01:13:02.343Z,20.15
2022-08-22T01:16:40.756Z,20.13
2022-08-22T01:20:28.010Z,20.12
2022-08-22T01:23:30.171Z,20.09
2022-08-22T01:26:53.028Z,20.13
2022-08-22T01:30:35.251Z,20.13
2022-08-22T01:34:12.832Z,20.12
2022-08-22T01:37:24.811Z,20.00
2022-08-22T01:40:57.996Z,20.14
2022-08-22T01:44:12.327Z,19.99
2022-08-22T01:47:21.739Z,20.14
2022-08-22T01:50:32.492Z,20.13
2022-08-22T01:53:50.293Z,20.16
2022-08-22T01:57:00.816Z,20.15
2022-08-22T02:00:16.615Z,20.02
2022-08-22T02:03:27.946Z,20.11
2022-08-22T02:06:40.999Z,20.03
2022-08-22T02:10:08.343Z,20.02
2022-08-22T02:13:13.616Z,20.12
2022-08-22T02:16:33.616Z,20.12
2022-08-22T02:19:49.644Z,20.08
2022-08-22T02:23:40.197Z,20.08
2022-08-22T02:27:05.289Z,20.10
2022-08-22T02:30:17.350Z,20.08
2022-08-22T02:33:49.289Z,19.98
2022-08-22T02:37:18.210Z,19.97
2022-08-22T02:40:35.013Z,20.09
2022-08-22T02:43:41.907Z,19.97
2022-08-22T02:47:06.871Z,20.01
2022-08-22T02:50:18.616Z,20.11
2022-08-22T02:53:32.438Z,20.11
2022-08-22T02:56:49.661Z,19.93
2022-08-22T03:00:31.334Z,20.12
2022-08-22T03:03:42.313Z,20.08
2022-08-22T03:07:00.091Z,19.93
2022-08-22T03:10:18.635Z,20.00
2022-08-22T03:13:40.194Z,20.05
2022-08-22T03:16:48.648Z,20.00
2022-08-22T03:20:05.286Z,19.90
2022-08-22T03:23:15.597Z,19.89
2022-08-22T03:26:26.411Z,19.89
2022-08-22T03:29:38.545Z,19.91
2022-08-22T03:32:51.987Z,20.01
2022-08-22T03:36:19.454Z,20.01
2022-08-22T03:39:42.909Z,20.03
2022-08-22T03:43:23.032Z,19.89
2022-08-22T03:46:46.063Z,20.00
2022-08-22T03:50:16.726Z,20.00
2022-08-22T03:53:24.896Z,20.00
2022-08-22T03:56:44.955Z,20.01
2022-08-22T04:00:31.977Z,19.98
2022-08-22T04:03:46.738Z,20.02
2022-08-22T04:07:05.936Z,20.03
2022-08-22T04:10:58.333Z,19.97
2022-08-22T04:14:25.962Z,20.05
2022-08-22T04:17:34.320Z,20.08
2022-08-22T04:21:07.500Z,20.11
2022-08-22T04:24:39.223Z,20.16
2022-08-22T04:27:52.266Z,20.19
2022-08-22T04:31:21.904Z,20.14
2022-08-22T04:34:52.136Z,20.12
2022-08-22T04:38:04.605Z,20.25
2022-08-22T04:41:18.214Z,20.19
2022-08-22T04:44:20.656Z,20.34
2022-08-22T04:47:39.189Z,20.37
2022-08-22T04:50:53.218Z,20.30
2022-08-22T04:54:18.750Z,20.46
2022-08-22T04:57:39.777Z,20.52
2022-08-22T05:00:59.118Z,20.56
2022-08-22T05:04:08.475Z,20.54
2022-08-22T05:07:25.143Z,20.64
2022-08-22T05:10:35.620Z,20.60
2022-08-22T05:13:47.671Z,20.57
2022-08-22T05:16:54.017Z,20.74
2022-08-22T05:20:00.405Z,20.69
2022-08-22T05:23:17.635Z,20.66
2022-08-22T05:26:21.683Z,20.83
2022-08-22T05:29:30.352Z,20.86
2022-08-22T05:33:09.008Z,20.71
2022-08-22T05:36:36.243Z,20.91
2022-08-22T05:39:47.060Z,20.92
2022-08-22T05:42:53.164Z,21.01
2022-08-22T05:45:58.732Z,21.22
2022-08-22T05:49:03.987Z,21.17
2022-08-22T05:52:22.565Z,21.28
2022-08-22T05:55:52.461Z,21.45
2022-08-22T05:59:05.826Z,21.59
2022-08-22T06:02:22.218Z,21.64
2022-08-22T06:05:31.706Z,21.70
2022-08-22T06:08:42.942Z,21.74
2022-08-22T06:12:21.750Z,21.81
2022-08-22T06:15:43.375Z,22.09
2022-08-22T06:18:52.068Z,21.97
2022-08-22T06:21:56.346Z,22.16
2022-08-22T06:25:12.391Z,22.19
2022-08-22T06:28:24.389Z,22.08
2022-08-22T06:31:35.925Z,22.17
2022-08-22T06:34:42.947Z,22.38
2022-08-22T06:37:50.271Z,22.50
2022-08-22T06:40:54.383Z,22.47
2022-08-22T06:44:00.467Z,22.63
2022-08-22T06:47:10.288Z,22.60
2022-08-22T06:50:36.149Z,22.57
2022-08-22T06:53:53.497Z,22.74
2022-08-22T06:57:04.335Z,22.84
2022-08-22T07:00:15.347Z,23.00
2022-08-22T07:03:27.345Z,23.25
2022-08-22T07:06:43.442Z,23.49
2022-08-22T07:09:51.756Z,23.36
2022-08-22T07:12:57.245Z,23.35
2022-08-22T07:16:01.943Z,23.61
2022-08-22T07:19:04.796Z,23.81
2022-08-22T07:22:35.167Z,23.67
2022-08-22T07:25:55.311Z,23.69
2022-08-22T07:29:19.547Z,23.91
2022-08-22T07:32:41.987Z,23.72
2022-08-22T07:35:53.594Z,23.54
2022-08-22T07:39:11.356Z,23.54
2022-08-22T07:42:21.679Z,23.45
2022-08-22T07:45:43.316Z,23.45
2022-08-22T07:49:08.294Z,23.48
2022-08-22T07:52:13.709Z,23.26
2022-08-22T07:55:20.778Z,23.23
2022-08-22T07:58:37.180Z,23.16
2022-08-22T08:01:46.098Z,23.35
2022-08-22T08:04:51.497Z,23.36
2022-08-22T08:07:56.349Z,23.35
2022-08-22T08:11:03.069Z,23.38
2022-08-22T08:14:07.921Z,23.26
2022-08-22T08:17:27.834Z,23.28
2022-08-22T08:20:36.336Z,23.33
2022-08-22T08:23:45.058Z,23.27
2022-08-22T08:27:20.802Z,23.56
2022-08-22T08:30:36.604Z,23.53
2022-08-22T08:33:44.650Z,23.65
2022-08-22T08:37:02.355Z,23.61
2022-08-22T08:40:18.403Z,23.74
2022-08-22T08:43:36.545Z,23.89
2022-08-22T08:46:55.429Z,24.08
2022-08-22T08:50:37.234Z,24.24
2022-08-22T08:53:54.661Z,24.43
2022-08-22T08:57:42.814Z,24.41
2022-08-22T09:01:03.377Z,24.44
2022-08-22T09:04:33.356Z,24.75
2022-08-22T09:07:54.350Z,24.61
2022-08-22T09:11:28.505Z,25.12
2022-08-22T09:15:02.694Z,25.34
2022-08-22T09:18:20.515Z,25.65
2022-08-22T09:21:31.202Z,26.08
2022-08-22T09:25:08.354Z,26.29
2022-08-22T09:28:30.523Z,26.42
2022-08-22T09:31:52.649Z,26.39
2022-08-22T09:35:42.228Z,26.35
2022-08-22T09:38:59.756Z,26.16
2022-08-22T09:42:24.615Z,26.20
2022-08-22T09:45:36.254Z,26.07
2022-08-22T09:48:38.645Z,25.94
2022-08-22T09:51:51.968Z,25.89
2022-08-22T09:55:08.135Z,25.24
2022-08-22T09:58:41.902Z,25.48
2022-08-22T10:01:51.337Z,25.48
2022-08-22T10:05:04.136Z,25.53
2022-08-22T10:08:19.672Z,25.68
2022-08-22T10:11:28.715Z,25.80
2022-08-22T10:15:06.877Z,25.80
2022-08-22T10:18:43.926Z,26.06
2022-08-22T10:22:15.293Z,26.12
2022-08-22T10:25:33.998Z,26.10
2022-08-22T10:28:53.322Z,25.95
2022-08-22T10:32:14.494Z,25.92
2022-08-22T10:35:25.761Z,25.81
2022-08-22T10:38:36.106Z,25.91
2022-08-22T10:41:53.281Z,25.91
2022-08-22T10:45:36.362Z,26.19
2022-08-22T10:49:08.179Z,26.54
2022-08-22T10:52:27.369Z,26.85
2022-08-22T10:55:32.242Z,27.27
2022-08-22T10:58:42.390Z,27.47
2022-08-22T11:02:06.309Z,27.65
2022-08-22T11:05:22.996Z,27.67
2022-08-22T11:08:53.172Z,27.58
2022-08-22T11:12:37.311Z,27.84
2022-08-22T11:15:51.271Z,27.72
2022-08-22T11:19:16.076Z,27.61
2022-08-22T11:22:55.630Z,27.57
2022-08-22T11:26:15.470Z,27.45
2022-08-22T11:29:48.766Z,27.56
2022-08-22T11:32:58.181Z,27.63
2022-08-22T11:36:12.161Z,27.65
2022-08-22T11:39:20.996Z,27.98
2022-08-22T11:42:47.400Z,28.53
2022-08-22T11:45:53.635Z,29.04
2022-08-22T11:49:32.889Z,29.44
2022-08-22T11:53:12.520Z,29.63
2022-08-22T11:56:51.762Z,29.56
2022-08-22T11:59:59.584Z,29.23
2022-08-22T12:03:59.683Z,28.85
2022-08-22T12:07:19.054Z,28.63
2022-08-22T12:10:30.399Z,28.14
2022-08-22T12:14:06.370Z,27.75
2022-08-22T12:17:22.811Z,27.58
2022-08-22T12:21:01.401Z,27.22
2022-08-22T12:24:40.479Z,27.10
2022-08-22T12:28:04.523Z,26.84
2022-08-22T12:31:21.870Z,26.76
2022-08-22T12:34:57.439Z,26.67
2022-08-22T12:38:28.074Z,26.72
2022-08-22T12:42:14.855Z,26.80
2022-08-22T12:45:27.320Z,26.79
2022-08-22T12:48:52.285Z,26.73
2022-08-22T12:52:19.936Z,26.72
2022-08-22T12:55:32.833Z,26.71
2022-08-22T12:59:12.837Z,26.71
2022-08-22T13:02:25.593Z,26.71
2022-08-22T13:05:34.277Z,26.56
2022-08-22T13:08:46.081Z,26.56
2022-08-22T13:11:52.451Z,26.34
2022-08-22T13:15:04.075Z,26.00
2022-08-22T13:18:29.372Z,25.37
2022-08-22T13:21:38.135Z,24.69
2022-08-22T13:24:56.884Z,24.71
2022-08-22T13:28:03.653Z,24.68
2022-08-22T13:31:09.100Z,24.40
2022-08-22T13:34:45.675Z,24.47
2022-08-22T13:37:52.373Z,24.36
2022-08-22T13:41:01.301Z,24.07
2022-08-22T13:44:06.652Z,24.23
2022-08-22T13:47:17.918Z,24.33
2022-08-22T13:50:28.906Z,24.62
2022-08-22T13:54:02.046Z,24.55
2022-08-22T13:57:17.709Z,24.37
2022-08-22T14:00:28.779Z,24.27
2022-08-22T14:03:57.615Z,24.21
2022-08-22T14:07:03.736Z,24.10
2022-08-22T14:10:15.358Z,24.28
2022-08-22T14:13:42.196Z,24.10
2022-08-22T14:16:50.828Z,24.19
2022-08-22T14:20:11.023Z,23.94
2022-08-22T14:23:22.625Z,23.84
2022-08-22T14:26:32.946Z,23.66
2022-08-22T14:29:40.481Z,23.63
2022-08-22T14:33:08.199Z,23.54
2022-08-22T14:36:17.123Z,23.53
2022-08-22T14:39:28.316Z,23.53
2022-08-22T14:42:44.246Z,23.33
2022-08-22T14:46:02.174Z,23.27
2022-08-22T14:49:20.839Z,23.09
2022-08-22T14:52:29.392Z,23.26
2022-08-22T14:55:32.853Z,23.34
2022-08-22T14:58:49.632Z,23.30
2022-08-22T15:02:05.602Z,23.31
2022-08-22T15:05:18.430Z,23.51
2022-08-22T15:08:24.406Z,23.70
2022-08-22T15:11:33.935Z,23.88
2022-08-22T15:14:37.479Z,24.07
2022-08-22T15:17:45.958Z,24.12
2022-08-22T15:21:08.619Z,24.22
2022-08-22T15:24:14.708Z,24.36
2022-08-22T15:27:21.165Z,24.32
2022-08-22T15:30:56.756Z,24.39
2022-08-22T15:34:33.715Z,24.28
2022-08-22T15:37:56.851Z,24.31
2022-08-22T15:41:24.417Z,24.23
2022-08-22T15:44:35.632Z,24.06
2022-08-22T15:47:41.330Z,23.96
2022-08-22T15:51:03.612Z,23.72
2022-08-22T15:54:24.329Z,23.72
2022-08-22T15:57:35.290Z,23.61
2022-08-22T16:01:19.890Z,23.55
2022-08-22T16:05:10.529Z,23.64
2022-08-22T16:08:48.437Z,23.55
2022-08-22T16:11:55.092Z,23.53
2022-08-22T16:14:59.498Z,23.46
2022-08-22T16:18:02.082Z,23.51
2022-08-22T16:21:38.304Z,23.45
2022-08-22T16:25:02.608Z,23.45
2022-08-22T16:28:06.308Z,23.37
2022-08-22T16:31:15.387Z,23.29
2022-08-22T16:34:43.023Z,23.40
2022-08-22T16:37:51.440Z,23.17
2022-08-22T16:40:54.421Z,23.23
2022-08-22T16:44:42.528Z,23.10
2022-08-22T16:47:58.225Z,22.79
2022-08-22T16:51:08.807Z,23.05
2022-08-22T16:54:52.500Z,23.05
2022-08-22T16:58:06.999Z,22.94
2022-08-22T17:01:28.172Z,22.89
2022-08-22T17:05:14.321Z,22.46
2022-08-22T17:08:50.719Z,22.69
2022-08-22T17:12:02.562Z,22.69
2022-08-22T17:15:28.816Z,22.71
2022-08-22T17:18:50.104Z,22.67
2022-08-22T17:22:28.495Z,22.58
2022-08-22T17:26:09.609Z,22.59
2022-08-22T17:29:30.924Z,22.56
2022-08-22T17:32:36.629Z,22.54
2022-08-22T17:36:26.584Z,22.47
2022-08-22T17:40:10.012Z,22.42
2022-08-22T17:43:42.971Z,22.43
2022-08-22T17:47:17.724Z,22.38
2022-08-22T17:50:37.548Z,22.32
2022-08-22T17:54:16.282Z,22.23
2022-08-22T17:57:47.076Z,22.23
2022-08-22T18:01:06.674Z,22.19
2022-08-22T18:04:17.610Z,22.19
2022-08-22T18:07:29.834Z,22.14
2022-08-22T18:11:09.322Z,21.99
2022-08-22T18:14:35.655Z,22.09
2022-08-22T18:17:47.194Z,22.03
2022-08-22T18:20:57.286Z,21.97
2022-08-22T18:24:14.243Z,21.93
2022-08-22T18:27:35.656Z,21.90
2022-08-22T18:30:57.398Z,21.34
2022-08-22T18:34:12.453Z,21.77
2022-08-22T18:37:35.457Z,21.59
2022-08-22T18:40:52.430Z,21.72
2022-08-22T18:44:06.004Z,21.51
2022-08-22T18:47:21.728Z,21.60
2022-08-22T18:50:40.556Z,21.60
2022-08-22T18:54:05.013Z,21.21
2022-08-22T18:58:03.722Z,21.43
2022-08-22T19:01:50.113Z,21.56
2022-08-22T19:05:17.533Z,21.54
2022-08-22T19:08:51.597Z,21.42
2022-08-22T19:12:21.848Z,21.51
2022-08-22T19:15:35.201Z,21.47
2022-08-22T19:18:37.781Z,21.06
2022-08-22T19:22:21.814Z,21.50
2022-08-22T19:25:27.527Z,21.49
2022-08-22T19:28:37.333Z,21.41
2022-08-22T19:31:45.909Z,21.51
2022-08-22T19:34:56.606Z,21.52
2022-08-22T19:38:07.505Z,21.46
2022-08-22T19:41:14.513Z,21.33
2022-08-22T19:44:22.000Z,21.30
2022-08-22T19:47:24.308Z,21.38
2022-08-22T19:50:33.118Z,21.35
2022-08-22T19:53:46.101Z,21.33
2022-08-22T19:57:09.958Z,21.32
2022-08-22T20:00:53.319Z,21.35
2022-08-22T20:04:21.435Z,21.33
2022-08-22T20:07:58.487Z,21.21
2022-08-22T20:11:17.747Z,20.84
2022-08-22T20:14:30.798Z,21.23
2022-08-22T20:17:40.912Z,21.22
2022-08-22T20:21:14.209Z,21.21
2022-08-22T20:24:16.877Z,21.21
2022-08-22T20:27:32.031Z,21.22
2022-08-22T20:30:46.827Z,21.12
2022-08-22T20:33:57.840Z,21.20
2022-08-22T20:37:29.267Z,21.22
2022-08-22T20:41:11.220Z,21.19
2022-08-22T20:44:39.878Z,21.20
2022-08-22T20:47:54.156Z,20.93
2022-08-22T20:51:06.902Z,21.16
2022-08-22T20:54:21.119Z,21.13
2022-08-22T20:57:23.664Z,21.05
2022-08-22T21:00:36.791Z,21.02
2022-08-22T21:03:51.922Z,21.06
2022-08-22T21:07:02.665Z,21.02
2022-08-22T21:10:37.006Z,21.01
2022-08-22T21:13:53.625Z,20.57
2022-08-22T21:17:34.443Z,21.05
2022-08-22T21:20:42.025Z,20.98
2022-08-22T21:23:51.314Z,21.06
2022-08-22T21:27:02.312Z,21.07
2022-08-22T21:30:10.320Z,20.99
2022-08-22T21:33:23.936Z,21.01
2022-08-22T21:36:37.910Z,20.93
2022-08-22T21:39:52.635Z,20.90
2022-08-22T21:43:02.776Z,20.90
2022-08-22T21:46:07.081Z,21.00
2022-08-22T21:49:23.201Z,20.99
2022-08-22T21:52:27.358Z,20.96
2022-08-22T21:55:29.895Z,20.95
2022-08-22T21:58:36.723Z,20.93
2022-08-22T22:01:42.625Z,20.80
2022-08-22T22:04:45.324Z,20.87
2022-08-22T22:07:47.931Z,20.81
2022-08-22T22:10:53.241Z,20.78
2022-08-22T22:13:55.697Z,20.91
2022-08-22T22:17:04.801Z,20.84
2022-08-22T22:20:08.140Z,20.92
2022-08-22T22:23:10.725Z,20.81
2022-08-22T22:26:14.287Z,20.90
2022-08-22T22:29:16.887Z,20.80
2022-08-22T22:32:19.210Z,20.87
2022-08-22T22:35:21.800Z,20.80
2022-08-22T22:38:24.535Z,20.89
2022-08-22T22:41:27.115Z,20.91
2022-08-22T22:44:29.392Z,20.93
2022-08-22T22:47:33.555Z,20.90
2022-08-22T22:50:40.633Z,20.86
2022-08-22T22:53:44.887Z,20.87
2022-08-22T22:56:47.998Z,20.84
2022-08-22T22:59:50.623Z,20.84
2022-08-22T23:02:53.409Z,20.71
2022-08-22T23:05:55.978Z,20.78
2022-08-22T23:08:58.393Z,20.77
2022-08-22T23:12:02.937Z,20.64
2022-08-22T23:15:07.174Z,20.70
2022-08-22T23:18:09.705Z,20.69
2022-08-22T23:21:12.061Z,20.66
2022-08-22T23:24:15.255Z,20.79
2022-08-22T23:27:18.097Z,20.75
2022-08-22T23:30:21.396Z,20.74
2022-08-22T23:33:24.675Z,20.69
2022-08-22T23:36:27.388Z,20.74
2022-08-22T23:39:30.970Z,20.70
2022-08-22T23:42:33.557Z,20.69
2022-08-22T23:45:35.966Z,20.69
2022-08-22T23:48:38.715Z,20.69
2022-08-22T23:51:42.776Z,20.58
2022-08-22T23:54:45.381Z,20.63
2022-08-22T23:57:47.651Z,20.53
